createdAt,value
2018-06-10T00:00:49.000Z,48.717
2018-06-10T00:10:49.000Z,49.012
2018-06-10T00:20:49.000Z,49.7
2018-06-10T00:30:49.000Z,49.095
2018-06-10T00:40:49.000Z,49.376
2018-06-10T00:50:49.000Z,49.518
2018-06-10T01:00:51.000Z,49.673
2018-06-10T01:10:49.000Z,49.513
2018-06-10T01:20:49.000Z,49.555
2018-06-10T01:30:49.000Z,49.717
2018-06-10T01:40:49.000Z,49.661
2018-06-10T01:50:49.000Z,49.433
2018-06-10T02:00:49.000Z,49.384
2018-06-10T02:10:49.000Z,49.479
2018-06-10T02:20:49.000Z,49.476
2018-06-10T02:30:49.000Z,49.496
2018-06-10T02:40:49.000Z,49.612
2018-06-10T02:50:49.000Z,49.602
2018-06-10T03:00:49.000Z,49.752
2018-06-10T03:10:49.000Z,49.894
2018-06-10T03:20:49.000Z,50.104
2018-06-10T03:30:49.000Z,50.538
2018-06-10T03:40:49.000Z,50.887
2018-06-10T03:50:49.000Z,51.371
2018-06-10T04:00:50.000Z,52.149
2018-06-10T04:10:49.000Z,52.237
2018-06-10T04:20:49.000Z,51.919
2018-06-10T04:30:49.000Z,53.01
2018-06-10T04:40:49.000Z,53.267
2018-06-10T04:50:49.000Z,53.363
2018-06-10T05:00:49.000Z,52.967
2018-06-10T05:10:49.000Z,53.728
2018-06-10T05:20:49.000Z,53.434
2018-06-10T05:30:49.000Z,52.971
2018-06-10T05:40:49.000Z,52.634
2018-06-10T05:50:49.000Z,51.923
2018-06-10T06:00:49.000Z,51.803
2018-06-10T06:10:49.000Z,51.761
2018-06-10T06:20:49.000Z,51.915
2018-06-10T06:30:49.000Z,51.806
2018-06-10T06:40:49.000Z,51.766
2018-06-10T06:50:50.000Z,51.886
2018-06-10T07:00:50.000Z,52.027
2018-06-10T07:10:50.000Z,51.926
2018-06-10T07:20:50.000Z,51.692
2018-06-10T07:30:50.000Z,51.806
2018-06-10T07:40:50.000Z,51.61
2018-06-10T07:50:50.000Z,51.645
2018-06-10T08:00:50.000Z,51.439
2018-06-10T08:10:50.000Z,50.941
2018-06-10T08:20:50.000Z,50.899
2018-06-10T08:30:50.000Z,51.054
2018-06-10T08:40:50.000Z,50.893
2018-06-10T08:50:50.000Z,50.863
2018-06-10T09:00:50.000Z,50.885
2018-06-10T09:10:51.000Z,50.895
2018-06-10T09:20:50.000Z,50.532
2018-06-10T09:30:50.000Z,50.089
2018-06-10T09:40:50.000Z,49.638
2018-06-10T09:50:50.000Z,49.83
2018-06-10T10:00:50.000Z,50.252
2018-06-10T10:10:50.000Z,49.57
2018-06-10T10:20:50.000Z,49.148
2018-06-10T10:30:50.000Z,48.728
2018-06-10T10:40:50.000Z,49.406
2018-06-10T10:50:50.000Z,48.446
2018-06-10T11:00:50.000Z,47.883
2018-06-10T11:10:50.000Z,47.677
2018-06-10T11:20:50.000Z,47.715
2018-06-10T11:30:50.000Z,47.421
2018-06-10T11:40:50.000Z,47.429
2018-06-10T11:50:50.000Z,47.177
2018-06-10T12:00:50.000Z,47.132
2018-06-10T12:10:50.000Z,47.041
2018-06-10T12:20:50.000Z,46.624
2018-06-10T12:30:50.000Z,45.943
2018-06-10T12:40:52.000Z,45.603
2018-06-10T12:50:50.000Z,45.852
2018-06-10T13:00:50.000Z,45.462
2018-06-10T13:10:50.000Z,45.203
2018-06-10T13:20:50.000Z,44.806
2018-06-10T13:30:50.000Z,45.185
2018-06-10T13:40:50.000Z,45.525
2018-06-10T13:50:52.000Z,45.245
2018-06-10T14:00:50.000Z,44.975
2018-06-10T14:10:50.000Z,44.336
2018-06-10T14:20:50.000Z,44.307
2018-06-10T14:30:50.000Z,44.075
2018-06-10T14:40:50.000Z,43.923
2018-06-10T14:50:50.000Z,44.065
2018-06-10T15:00:50.000Z,44.092
2018-06-10T15:10:51.000Z,43.663
2018-06-10T15:20:51.000Z,43.83
2018-06-10T15:30:51.000Z,43.871
2018-06-10T15:40:51.000Z,43.63
2018-06-10T15:50:51.000Z,43.62
2018-06-10T16:00:52.000Z,43.627
2018-06-10T16:10:52.000Z,43.612
2018-06-10T16:20:51.000Z,43.299
2018-06-10T16:30:51.000Z,43.066
2018-06-10T16:40:54.000Z,42.869
2018-06-10T16:50:51.000Z,42.19
2018-06-10T17:00:51.000Z,42.243
2018-06-10T17:10:51.000Z,42.56
2018-06-10T17:20:51.000Z,42.91
2018-06-10T17:30:51.000Z,42.871
2018-06-10T17:40:51.000Z,42.98
2018-06-10T17:50:51.000Z,43.386
2018-06-10T18:00:51.000Z,43.583
2018-06-10T18:10:54.000Z,43.906
2018-06-10T18:20:51.000Z,44.858
2018-06-10T18:30:51.000Z,44.673
2018-06-10T18:40:51.000Z,44.664
2018-06-10T18:50:51.000Z,44.776
2018-06-10T19:00:53.000Z,44.893
2018-06-10T19:10:51.000Z,44.84
2018-06-10T19:20:51.000Z,45.095
2018-06-10T19:30:52.000Z,45.125
2018-06-10T19:40:51.000Z,45.058
2018-06-10T19:50:51.000Z,45.147
2018-06-10T20:00:52.000Z,45.714
2018-06-10T20:10:51.000Z,45.196
2018-06-10T20:20:53.000Z,45.825
2018-06-10T20:30:51.000Z,46.246
2018-06-10T20:40:51.000Z,44.802
2018-06-10T20:50:51.000Z,44.404
2018-06-10T21:00:51.000Z,44.14
2018-06-10T21:10:51.000Z,43.624
2018-06-10T21:20:51.000Z,43.697
2018-06-10T21:40:51.000Z,43.559
2018-06-10T21:50:51.000Z,43.693
2018-06-10T22:10:51.000Z,43.875
2018-06-10T22:20:51.000Z,43.336
2018-06-10T22:30:52.000Z,43.564
2018-06-10T22:40:51.000Z,43.513
2018-06-10T23:00:51.000Z,43.492
2018-06-10T23:10:51.000Z,43.504
2018-06-10T23:20:51.000Z,43.672
2018-06-10T23:30:52.000Z,43.603
2018-06-10T23:40:52.000Z,43.623
2018-06-10T23:50:52.000Z,43.675
